createdAt,value
2022-09-22T00:04:38.361Z,85.63
2022-09-22T00:09:38.325Z,85.82
2022-09-22T00:14:38.758Z,86.02
2022-09-22T00:19:38.454Z,86.33
2022-09-22T00:24:38.372Z,86.18
2022-09-22T00:29:38.697Z,86.23
2022-09-22T00:34:38.306Z,86.40
2022-09-22T00:39:38.360Z,86.80
2022-09-22T00:44:40.259Z,86.67
2022-09-22T00:49:45.611Z,86.62
2022-09-22T00:54:38.656Z,87.42
2022-09-22T00:59:40.196Z,87.93
2022-09-22T01:04:40.169Z,87.97
2022-09-22T01:09:38.410Z,88.40
2022-09-22T01:14:54.651Z,89.64
2022-09-22T01:19:58.300Z,89.56
2022-09-22T01:24:47.476Z,88.90
2022-09-22T01:29:57.103Z,88.76
2022-09-22T01:34:45.854Z,88.59
2022-09-22T01:39:42.577Z,88.55
2022-09-22T01:44:44.631Z,88.89
2022-09-22T01:49:44.755Z,89.05
2022-09-22T01:54:44.432Z,88.67
2022-09-22T01:59:42.141Z,88.59
2022-09-22T02:04:44.735Z,88.96
2022-09-22T02:09:41.172Z,88.94
2022-09-22T02:14:38.729Z,88.72
2022-09-22T02:19:40.755Z,88.64
2022-09-22T02:24:40.643Z,88.59
2022-09-22T02:29:42.432Z,88.52
2022-09-22T02:34:38.697Z,88.64
2022-09-22T02:39:44.859Z,89.27
2022-09-22T02:44:46.870Z,89.32
2022-09-22T02:49:40.661Z,89.04
2022-09-22T02:54:38.615Z,88.92
2022-09-22T02:59:38.283Z,88.65
2022-09-22T03:04:38.559Z,88.67
2022-09-22T03:09:38.479Z,88.74
2022-09-22T03:14:38.246Z,88.82
2022-09-22T03:19:38.284Z,88.59
2022-09-22T03:24:38.511Z,88.32
2022-09-22T03:29:38.591Z,88.30
2022-09-22T03:34:38.210Z,88.29
2022-09-22T03:39:38.407Z,88.30
2022-09-22T03:44:38.776Z,88.69
2022-09-22T03:49:38.401Z,88.32
2022-09-22T03:54:38.955Z,88.20
2022-09-22T03:59:38.546Z,88.01
2022-09-22T04:04:38.382Z,87.92
2022-09-22T04:09:39.047Z,87.88
2022-09-22T04:14:39.310Z,88.14
2022-09-22T04:19:40.224Z,88.73
2022-09-22T04:24:38.274Z,88.57
2022-09-22T04:29:38.335Z,88.14
2022-09-22T04:34:38.172Z,87.93
2022-09-22T04:39:38.694Z,87.91
2022-09-22T04:44:38.420Z,88.08
2022-09-22T04:49:38.574Z,87.80
2022-09-22T04:54:38.439Z,87.58
2022-09-22T04:59:38.377Z,87.46
2022-09-22T05:04:38.140Z,87.21
2022-09-22T05:09:38.176Z,87.08
2022-09-22T05:14:38.886Z,86.86
2022-09-22T05:19:38.123Z,86.67
2022-09-22T05:24:41.468Z,86.47
2022-09-22T05:29:38.441Z,86.84
2022-09-22T05:34:38.249Z,86.58
2022-09-22T05:39:38.166Z,86.36
2022-09-22T05:44:38.590Z,86.09
2022-09-22T05:49:38.104Z,86.13
2022-09-22T05:54:38.345Z,85.94
2022-09-22T05:59:38.384Z,85.88
2022-09-22T06:04:38.111Z,86.07
2022-09-22T06:09:38.623Z,85.73
2022-09-22T06:14:38.338Z,85.71
2022-09-22T06:19:38.905Z,85.38
2022-09-22T06:24:38.063Z,85.01
2022-09-22T06:29:40.645Z,84.67
2022-09-22T06:34:38.288Z,84.33
2022-09-22T06:39:38.186Z,84.17
2022-09-22T06:44:39.080Z,83.89
2022-09-22T06:49:38.157Z,83.60
2022-09-22T06:54:41.329Z,84.19
2022-09-22T06:59:39.782Z,83.98
2022-09-22T07:04:38.238Z,83.48
2022-09-22T07:09:38.154Z,82.85
2022-09-22T07:14:38.184Z,82.20
2022-09-22T07:19:38.072Z,81.13
2022-09-22T07:24:38.313Z,76.80
2022-09-22T07:29:38.188Z,77.13
2022-09-22T07:34:38.168Z,76.19
2022-09-22T07:39:38.167Z,76.02
2022-09-22T07:44:48.211Z,74.10
2022-09-22T07:49:38.016Z,75.20
2022-09-22T07:54:38.850Z,74.20
2022-09-22T07:59:40.722Z,73.65
2022-09-22T08:04:38.107Z,72.54
2022-09-22T08:09:38.271Z,72.29
2022-09-22T08:14:38.150Z,70.22
2022-09-22T08:19:38.080Z,64.70
2022-09-22T08:24:38.223Z,61.88
2022-09-22T08:29:38.135Z,58.08
2022-09-22T08:34:38.074Z,53.45
2022-09-22T08:39:38.208Z,54.43
2022-09-22T08:44:46.158Z,51.59
2022-09-22T08:49:54.861Z,49.65
2022-09-22T08:54:37.987Z,49.07
2022-09-22T08:59:45.123Z,48.24
2022-09-22T09:04:57.891Z,51.75
2022-09-22T09:09:50.557Z,51.69
2022-09-22T09:14:53.846Z,50.10
2022-09-22T09:19:41.252Z,50.03
2022-09-22T09:29:46.900Z,46.63
2022-09-22T09:34:38.932Z,47.12
2022-09-22T09:39:40.116Z,46.87
2022-09-22T09:44:39.157Z,50.62
2022-09-22T09:49:38.121Z,50.47
2022-09-22T09:54:40.058Z,51.82
2022-09-22T09:59:50.251Z,52.95
2022-09-22T10:04:38.790Z,50.46
2022-09-22T10:09:39.411Z,47.94
2022-09-22T10:14:38.523Z,49.42
2022-09-22T10:19:38.165Z,46.80
2022-09-22T10:24:38.114Z,47.00
2022-09-22T10:29:41.209Z,48.16
2022-09-22T10:34:40.796Z,49.05
2022-09-22T10:39:43.824Z,50.26
2022-09-22T10:44:41.979Z,52.40
2022-09-22T10:49:52.376Z,52.30
2022-09-22T10:54:52.242Z,52.83
2022-09-22T10:59:57.075Z,51.74
2022-09-22T11:01:08.261Z,50.16
2022-09-22T11:04:49.014Z,50.16
2022-09-22T11:09:58.036Z,49.05
2022-09-22T11:15:00.140Z,50.69
2022-09-22T11:16:40.745Z,50.17
2022-09-22T11:19:50.288Z,50.17
2022-09-22T11:23:30.907Z,50.51
2022-09-22T11:24:55.148Z,50.51
2022-09-22T11:30:01.406Z,50.53
2022-09-22T11:34:54.528Z,53.05
2022-09-22T11:39:46.816Z,54.48
2022-09-22T11:44:42.260Z,54.44
2022-09-22T11:49:49.807Z,53.17
2022-09-22T11:54:50.849Z,54.64
2022-09-22T11:59:45.694Z,54.28
2022-09-22T12:04:43.369Z,55.01
2022-09-22T12:09:42.891Z,54.74
2022-09-22T12:14:39.797Z,55.15
2022-09-22T12:19:52.474Z,55.50
2022-09-22T12:24:38.866Z,55.80
2022-09-22T12:29:38.603Z,56.70
2022-09-22T12:34:39.742Z,56.96
2022-09-22T12:39:41.006Z,57.37
2022-09-22T12:44:48.459Z,57.26
2022-09-22T12:49:47.043Z,56.83
2022-09-22T12:54:38.115Z,57.63
2022-09-22T12:59:53.455Z,58.12
2022-09-22T13:04:38.929Z,58.46
2022-09-22T13:09:38.018Z,59.09
2022-09-22T13:14:57.087Z,60.10
2022-09-22T13:19:54.250Z,59.81
2022-09-22T13:24:37.961Z,59.30
2022-09-22T13:29:38.994Z,59.30
2022-09-22T13:34:38.094Z,58.69
2022-09-22T13:39:46.250Z,58.10
2022-09-22T13:44:41.016Z,58.46
2022-09-22T13:49:41.299Z,59.14
2022-09-22T13:54:38.874Z,59.44
2022-09-22T13:59:40.832Z,59.40
2022-09-22T14:04:48.357Z,58.92
2022-09-22T14:09:38.753Z,58.71
2022-09-22T14:14:39.213Z,59.01
2022-09-22T14:19:41.982Z,59.46
2022-09-22T14:24:44.904Z,59.35
2022-09-22T14:29:39.198Z,59.52
2022-09-22T14:34:38.642Z,59.53
2022-09-22T14:39:40.566Z,59.41
2022-09-22T14:44:43.099Z,59.13
2022-09-22T14:49:40.202Z,59.03
2022-09-22T14:54:38.701Z,59.64
2022-09-22T14:59:48.071Z,60.09
2022-09-22T15:04:40.642Z,59.95
2022-09-22T15:09:41.622Z,60.72
2022-09-22T15:14:41.815Z,61.16
2022-09-22T15:19:37.619Z,61.44
2022-09-22T15:24:38.370Z,62.15
2022-09-22T15:29:37.974Z,62.41
2022-09-22T15:34:43.762Z,62.83
2022-09-22T15:39:37.801Z,62.48
2022-09-22T15:44:37.871Z,62.12
2022-09-22T15:49:38.199Z,60.69
2022-09-22T15:54:37.785Z,61.55
2022-09-22T15:59:38.750Z,60.90
2022-09-22T16:04:38.265Z,60.36
2022-09-22T16:09:37.860Z,60.74
2022-09-22T16:14:40.540Z,60.62
2022-09-22T16:19:38.058Z,60.91
2022-09-22T16:24:37.883Z,60.99
2022-09-22T16:29:37.907Z,61.35
2022-09-22T16:34:37.764Z,61.82
2022-09-22T16:39:38.030Z,61.96
2022-09-22T16:44:37.835Z,62.27
2022-09-22T16:49:40.092Z,62.51
2022-09-22T16:54:38.058Z,62.73
2022-09-22T16:59:37.810Z,63.12
2022-09-22T17:04:37.826Z,63.54
2022-09-22T17:09:37.757Z,63.74
2022-09-22T17:14:40.387Z,63.96
2022-09-22T17:19:37.734Z,64.62
2022-09-22T17:24:38.010Z,64.91
2022-09-22T17:29:37.807Z,65.76
2022-09-22T17:34:37.849Z,66.34
2022-09-22T17:39:37.730Z,66.67
2022-09-22T17:44:37.802Z,67.07
2022-09-22T17:49:47.451Z,67.94
2022-09-22T17:49:58.112Z,67.94
2022-09-22T17:54:49.568Z,67.89
2022-09-22T17:59:39.852Z,68.23
2022-09-22T18:04:38.503Z,68.71
2022-09-22T18:09:40.418Z,69.13
2022-09-22T18:14:43.301Z,69.41
2022-09-22T18:19:38.931Z,69.42
2022-09-22T18:24:37.901Z,69.34
2022-09-22T18:29:37.785Z,69.29
2022-09-22T18:34:38.384Z,69.38
2022-09-22T18:39:39.742Z,69.50
2022-09-22T18:44:38.339Z,69.78
2022-09-22T18:49:40.418Z,69.74
2022-09-22T18:54:38.925Z,70.60
2022-09-22T18:59:38.556Z,70.39
2022-09-22T19:04:38.321Z,70.53
2022-09-22T19:09:39.151Z,70.72
2022-09-22T19:14:38.795Z,70.83
2022-09-22T19:19:42.141Z,71.20
2022-09-22T19:24:39.692Z,71.28
2022-09-22T19:29:37.913Z,71.44
2022-09-22T19:34:37.887Z,71.71
2022-09-22T19:39:38.038Z,71.83
2022-09-22T19:44:39.176Z,72.23
2022-09-22T19:49:39.813Z,72.63
2022-09-22T19:54:37.779Z,72.63
2022-09-22T19:59:37.862Z,72.82
2022-09-22T20:04:38.336Z,73.12
2022-09-22T20:09:38.331Z,73.28
2022-09-22T20:14:37.612Z,73.45
2022-09-22T20:19:37.779Z,73.66
2022-09-22T20:24:37.813Z,73.88
2022-09-22T20:29:37.668Z,73.90
2022-09-22T20:34:38.230Z,74.11
2022-09-22T20:39:38.013Z,74.07
2022-09-22T20:44:37.767Z,74.34
2022-09-22T20:49:40.449Z,74.40
2022-09-22T20:54:37.621Z,74.45
2022-09-22T20:59:38.071Z,74.51
2022-09-22T21:04:37.701Z,74.69
2022-09-22T21:09:47.557Z,74.89
2022-09-22T21:14:37.596Z,75.19
2022-09-22T21:19:37.651Z,75.42
2022-09-22T21:24:38.357Z,75.33
2022-09-22T21:29:37.633Z,75.33
2022-09-22T21:34:37.705Z,75.89
2022-09-22T21:39:37.606Z,76.03
2022-09-22T21:44:38.231Z,75.95
2022-09-22T21:49:37.564Z,76.13
2022-09-22T21:54:37.517Z,76.42
2022-09-22T21:59:37.522Z,76.46
2022-09-22T22:04:38.386Z,76.72
2022-09-22T22:09:37.515Z,76.97
2022-09-22T22:14:38.652Z,77.11
2022-09-22T22:19:37.527Z,77.28
2022-09-22T22:24:39.842Z,77.30
2022-09-22T22:29:37.881Z,77.45
2022-09-22T22:34:37.680Z,77.72
2022-09-22T22:39:37.480Z,77.93
2022-09-22T22:44:37.537Z,78.16
2022-09-22T22:49:37.481Z,78.41
2022-09-22T22:54:37.480Z,78.59
2022-09-22T22:59:37.466Z,78.78
2022-09-22T23:04:38.440Z,78.98
2022-09-22T23:09:37.442Z,79.21
2022-09-22T23:14:37.475Z,79.74
2022-09-22T23:19:37.763Z,79.62
2022-09-22T23:24:38.496Z,79.73
2022-09-22T23:29:37.825Z,79.90
2022-09-22T23:34:37.469Z,80.06
2022-09-22T23:39:37.457Z,80.32
2022-09-22T23:44:37.431Z,80.39
2022-09-22T23:49:37.467Z,80.74
2022-09-22T23:54:37.462Z,80.78
2022-09-22T23:59:37.428Z,81.02
